sensor_id;sensor_type;location;lat;lon;timestamp;pressure;altitude;pressure_sealevel;temperature;humidity
6132;BME280;3097;42.692;23.278;2023-03-11T00:00:47;93249.03;;;11.11;100.00
6132;BME280;3097;42.692;23.278;2023-03-11T00:03:15;93239.25;;;11.08;100.00
6132;BME280;3097;42.692;23.278;2023-03-11T00:05:42;93263.03;;;10.95;100.00
6132;BME280;3097;42.692;23.278;2023-03-11T00:08:13;93236.75;;;10.83;100.00
6132;BME280;3097;42.692;23.278;2023-03-11T00:10:41;93248.59;;;10.84;100.00
6132;BME280;3097;42.692;23.278;2023-03-11T00:13:08;93245.78;;;10.80;100.00
6132;BME280;3097;42.692;23.278;2023-03-11T00:15:35;93194.63;;;10.43;100.00
6132;BME280;3097;42.692;23.278;2023-03-11T00:18:01;93230.91;;;10.52;100.00
6132;BME280;3097;42.692;23.278;2023-03-11T00:20:29;93218.78;;;10.53;100.00
6132;BME280;3097;42.692;23.278;2023-03-11T00:22:56;93234.25;;;10.53;100.00
6132;BME280;3097;42.692;23.278;2023-03-11T00:25:23;93227.81;;;10.55;100.00
6132;BME280;3097;42.692;23.278;2023-03-11T00:27:49;93210.59;;;10.30;100.00
6132;BME280;3097;42.692;23.278;2023-03-11T00:30:15;93215.22;;;10.38;100.00
6132;BME280;3097;42.692;23.278;2023-03-11T00:32:41;93202.31;;;10.38;100.00
6132;BME280;3097;42.692;23.278;2023-03-11T00:35:10;93165.53;;;10.28;100.00
6132;BME280;3097;42.692;23.278;2023-03-11T00:37:36;93207.72;;;10.57;100.00
6132;BME280;3097;42.692;23.278;2023-03-11T00:40:02;93216.22;;;10.58;100.00
6132;BME280;3097;42.692;23.278;2023-03-11T00:42:32;93202.31;;;10.59;100.00
6132;BME280;3097;42.692;23.278;2023-03-11T00:44:58;93198.16;;;10.53;100.00
6132;BME280;3097;42.692;23.278;2023-03-11T00:47:23;93207.94;;;10.66;100.00
6132;BME280;3097;42.692;23.278;2023-03-11T00:49:48;93198.41;;;10.71;100.00
6132;BME280;3097;42.692;23.278;2023-03-11T00:52:14;93190.91;;;10.75;100.00
6132;BME280;3097;42.692;23.278;2023-03-11T00:54:39;93180.31;;;10.86;100.00
6132;BME280;3097;42.692;23.278;2023-03-11T00:57:05;93167.63;;;10.90;100.00
6132;BME280;3097;42.692;23.278;2023-03-11T00:59:30;93164.50;;;10.98;100.00
6132;BME280;3097;42.692;23.278;2023-03-11T01:01:56;93159.63;;;11.02;100.00
6132;BME280;3097;42.692;23.278;2023-03-11T01:04:21;93154.75;;;10.95;100.00
6132;BME280;3097;42.692;23.278;2023-03-11T01:06:46;93128.06;;;10.66;100.00
6132;BME280;3097;42.692;23.278;2023-03-11T01:09:12;93078.72;;;10.38;100.00
6132;BME280;3097;42.692;23.278;2023-03-11T01:11:37;93161.38;;;11.06;100.00
6132;BME280;3097;42.692;23.278;2023-03-11T01:14:03;93157.00;;;11.12;100.00
6132;BME280;3097;42.692;23.278;2023-03-11T01:16:28;93154.13;;;11.18;100.00
6132;BME280;3097;42.692;23.278;2023-03-11T01:18:53;93148.19;;;11.13;100.00
6132;BME280;3097;42.692;23.278;2023-03-11T01:21:19;93142.84;;;11.04;100.00
6132;BME280;3097;42.692;23.278;2023-03-11T01:23:44;93099.88;;;10.90;100.00
6132;BME280;3097;42.692;23.278;2023-03-11T01:26:10;93104.75;;;10.96;100.00
6132;BME280;3097;42.692;23.278;2023-03-11T01:28:36;93088.16;;;11.07;100.00
6132;BME280;3097;42.692;23.278;2023-03-11T01:31:02;93092.28;;;11.08;100.00
6132;BME280;3097;42.692;23.278;2023-03-11T01:33:27;93046.53;;;10.85;100.00
6132;BME280;3097;42.692;23.278;2023-03-11T01:35:53;93088.16;;;11.12;100.00
6132;BME280;3097;42.692;23.278;2023-03-11T01:38:19;93087.94;;;11.04;100.00
6132;BME280;3097;42.692;23.278;2023-03-11T01:40:47;93087.25;;;10.88;100.00
6132;BME280;3097;42.692;23.278;2023-03-11T01:48:48;93097.59;;;10.19;100.00
6132;BME280;3097;42.692;23.278;2023-03-11T01:51:16;93093.97;;;10.15;100.00
6132;BME280;3097;42.692;23.278;2023-03-11T01:53:44;93116.84;;;10.16;100.00
6132;BME280;3097;42.692;23.278;2023-03-11T01:56:11;93127.91;;;10.32;100.00
6132;BME280;3097;42.692;23.278;2023-03-11T01:58:41;93135.66;;;10.37;100.00
6132;BME280;3097;42.692;23.278;2023-03-11T02:01:09;93115.78;;;10.42;100.00
6132;BME280;3097;42.692;23.278;2023-03-11T02:03:38;93085.97;;;10.11;100.00
6132;BME280;3097;42.692;23.278;2023-03-11T02:06:14;93116.84;;;10.31;100.00
6132;BME280;3097;42.692;23.278;2023-03-11T02:08:41;93121.47;;;10.39;100.00
6132;BME280;3097;42.692;23.278;2023-03-11T02:11:10;93129.19;;;10.44;100.00
6132;BME280;3097;42.692;23.278;2023-03-11T02:13:38;93116.84;;;10.36;100.00
6132;BME280;3097;42.692;23.278;2023-03-11T02:16:05;93130.72;;;10.40;100.00
6132;BME280;3097;42.692;23.278;2023-03-11T02:18:31;93132.50;;;10.45;100.00
6132;BME280;3097;42.692;23.278;2023-03-11T02:23:35;93150.78;;;10.59;100.00
6132;BME280;3097;42.692;23.278;2023-03-11T02:26:17;93154.63;;;10.56;100.00
6132;BME280;3097;42.692;23.278;2023-03-11T02:28:45;93159.53;;;10.58;100.00
6132;BME280;3097;42.692;23.278;2023-03-11T02:31:12;93162.88;;;10.63;100.00
6132;BME280;3097;42.692;23.278;2023-03-11T02:33:39;93160.06;;;10.60;100.00
6132;BME280;3097;42.692;23.278;2023-03-11T02:36:06;93159.03;;;10.56;100.00
6132;BME280;3097;42.692;23.278;2023-03-11T02:38:31;93158.75;;;10.57;100.00
6132;BME280;3097;42.692;23.278;2023-03-11T02:40:59;93123.28;;;10.34;100.00
6132;BME280;3097;42.692;23.278;2023-03-11T02:43:37;93147.97;;;10.50;100.00
6132;BME280;3097;42.692;23.278;2023-03-11T02:46:06;93149.50;;;10.51;100.00
6132;BME280;3097;42.692;23.278;2023-03-11T02:48:34;93156.19;;;10.57;100.00
6132;BME280;3097;42.692;23.278;2023-03-11T02:51:01;93107.56;;;10.40;100.00
6132;BME280;3097;42.692;23.278;2023-03-11T02:53:28;93137.34;;;10.62;100.00
6132;BME280;3097;42.692;23.278;2023-03-11T02:55:54;93118.84;;;10.60;99.32
6132;BME280;3097;42.692;23.278;2023-03-11T02:58:20;93147.34;;;10.78;98.93
6132;BME280;3097;42.692;23.278;2023-03-11T03:03:20;93148.28;;;10.98;97.37
6132;BME280;3097;42.692;23.278;2023-03-11T03:05:46;93149.84;;;10.94;96.96
6132;BME280;3097;42.692;23.278;2023-03-11T03:08:11;93139.28;;;10.95;96.44
6132;BME280;3097;42.692;23.278;2023-03-11T03:10:37;93145.13;;;11.06;95.76
6132;BME280;3097;42.692;23.278;2023-03-11T03:13:02;93113.81;;;10.89;95.08
6132;BME280;3097;42.692;23.278;2023-03-11T03:15:28;93146.94;;;11.05;95.12
6132;BME280;3097;42.692;23.278;2023-03-11T03:17:54;93121.19;;;11.00;95.03
6132;BME280;3097;42.692;23.278;2023-03-11T03:20:20;93128.72;;;10.97;94.81
6132;BME280;3097;42.692;23.278;2023-03-11T03:22:47;93150.75;;;11.18;93.90
6132;BME280;3097;42.692;23.278;2023-03-11T03:25:13;93157.72;;;11.17;94.20
6132;BME280;3097;42.692;23.278;2023-03-11T03:27:39;93152.56;;;11.17;94.20
6132;BME280;3097;42.692;23.278;2023-03-11T03:30:05;93157.19;;;11.20;94.19
6132;BME280;3097;42.692;23.278;2023-03-11T03:32:31;93149.16;;;11.27;93.15
6132;BME280;3097;42.692;23.278;2023-03-11T03:34:56;93158.69;;;11.32;91.77
6132;BME280;3097;42.692;23.278;2023-03-11T03:37:25;93153.81;;;11.25;91.32
6132;BME280;3097;42.692;23.278;2023-03-11T03:39:51;93121.94;;;11.06;89.91
6132;BME280;3097;42.692;23.278;2023-03-11T03:42:17;93163.88;;;11.27;89.91
6132;BME280;3097;42.692;23.278;2023-03-11T03:44:42;93145.00;;;11.31;89.88
6132;BME280;3097;42.692;23.278;2023-03-11T03:47:08;93148.56;;;11.35;89.15
6132;BME280;3097;42.692;23.278;2023-03-11T03:49:33;93131.59;;;11.29;87.94
6132;BME280;3097;42.692;23.278;2023-03-11T03:51:59;93145.16;;;11.50;86.48
6132;BME280;3097;42.692;23.278;2023-03-11T03:54:24;93148.25;;;11.47;85.28
6132;BME280;3097;42.692;23.278;2023-03-11T03:56:50;93136.91;;;11.48;85.11
6132;BME280;3097;42.692;23.278;2023-03-11T03:59:15;93138.47;;;11.44;84.76
6132;BME280;3097;42.692;23.278;2023-03-11T04:01:41;93101.53;;;11.14;85.13
6132;BME280;3097;42.692;23.278;2023-03-11T04:04:06;93153.41;;;11.47;85.22
6132;BME280;3097;42.692;23.278;2023-03-11T04:06:31;93104.84;;;11.20;85.69
6132;BME280;3097;42.692;23.278;2023-03-11T04:08:57;93109.94;;;11.30;86.14
6132;BME280;3097;42.692;23.278;2023-03-11T04:11:22;93140.00;;;11.50;84.53
6132;BME280;3097;42.692;23.278;2023-03-11T04:13:48;93042.47;;;10.79;85.15
6132;BME280;3097;42.692;23.278;2023-03-11T04:16:21;93135.16;;;11.38;85.29
6132;BME280;3097;42.692;23.278;2023-03-11T04:18:48;93147.25;;;11.43;85.20
6132;BME280;3097;42.692;23.278;2023-03-11T04:21:13;93147.44;;;11.51;85.54
6132;BME280;3097;42.692;23.278;2023-03-11T04:23:38;93153.13;;;11.53;85.07
6132;BME280;3097;42.692;23.278;2023-03-11T04:26:04;93114.63;;;11.23;85.47
6132;BME280;3097;42.692;23.278;2023-03-11T04:28:30;93146.75;;;11.41;86.11
6132;BME280;3097;42.692;23.278;2023-03-11T04:30:55;93146.44;;;11.47;85.54
6132;BME280;3097;42.692;23.278;2023-03-11T04:33:21;93148.47;;;11.50;84.72
6132;BME280;3097;42.692;23.278;2023-03-11T04:35:47;93148.78;;;11.44;84.92
6132;BME280;3097;42.692;23.278;2023-03-11T04:38:12;93156.97;;;11.56;84.09
6132;BME280;3097;42.692;23.278;2023-03-11T04:40:38;93157.53;;;11.48;83.89
6132;BME280;3097;42.692;23.278;2023-03-11T04:43:04;93145.16;;;11.50;83.55
6132;BME280;3097;42.692;23.278;2023-03-11T04:45:29;93140.00;;;11.45;83.35
6132;BME280;3097;42.692;23.278;2023-03-11T04:47:55;93148.31;;;11.42;83.34
6132;BME280;3097;42.692;23.278;2023-03-11T04:50:20;93153.16;;;11.48;83.85
6132;BME280;3097;42.692;23.278;2023-03-11T04:52:46;93158.59;;;11.47;83.81
6132;BME280;3097;42.692;23.278;2023-03-11T04:55:13;93156.72;;;11.57;83.95
6132;BME280;3097;42.692;23.278;2023-03-11T04:57:42;93156.22;;;11.50;84.59
6132;BME280;3097;42.692;23.278;2023-03-11T05:00:10;93168.38;;;11.50;84.13
6132;BME280;3097;42.692;23.278;2023-03-11T05:02:37;93140.81;;;11.40;83.70
6132;BME280;3097;42.692;23.278;2023-03-11T05:05:04;93121.59;;;11.22;82.43
6132;BME280;3097;42.692;23.278;2023-03-11T05:07:29;93177.63;;;11.56;82.69
6132;BME280;3097;42.692;23.278;2023-03-11T05:09:55;93177.06;;;11.64;82.35
6132;BME280;3097;42.692;23.278;2023-03-11T05:12:20;93070.00;;;10.83;82.36
6132;BME280;3097;42.692;23.278;2023-03-11T05:14:46;93184.31;;;11.57;82.25
6132;BME280;3097;42.692;23.278;2023-03-11T05:17:11;93194.66;;;11.57;82.54
6132;BME280;3097;42.692;23.278;2023-03-11T05:19:39;93145.06;;;11.21;83.00
6132;BME280;3097;42.692;23.278;2023-03-11T05:22:05;93189.75;;;11.55;83.07
6132;BME280;3097;42.692;23.278;2023-03-11T05:24:31;93209.06;;;11.58;82.96
6132;BME280;3097;42.692;23.278;2023-03-11T05:26:57;93210.66;;;11.54;82.63
6132;BME280;3097;42.692;23.278;2023-03-11T05:29:23;93220.91;;;11.64;82.78
6132;BME280;3097;42.692;23.278;2023-03-11T05:31:49;93218.88;;;11.61;82.27
6132;BME280;3097;42.692;23.278;2023-03-11T05:34:15;93222.47;;;11.65;82.39
6132;BME280;3097;42.692;23.278;2023-03-11T05:36:41;93221.91;;;11.68;82.93
6132;BME280;3097;42.692;23.278;2023-03-11T05:39:07;93198.75;;;11.58;82.67
6132;BME280;3097;42.692;23.278;2023-03-11T05:41:32;93221.63;;;11.80;82.06
6132;BME280;3097;42.692;23.278;2023-03-11T05:43:58;93227.31;;;11.77;81.60
6132;BME280;3097;42.692;23.278;2023-03-11T05:46:23;93227.53;;;11.80;81.06
6132;BME280;3097;42.692;23.278;2023-03-11T05:48:49;93193.09;;;11.56;81.73
6132;BME280;3097;42.692;23.278;2023-03-11T05:51:14;93243.00;;;11.85;82.48
6132;BME280;3097;42.692;23.278;2023-03-11T05:53:46;93235.84;;;11.77;83.15
6132;BME280;3097;42.692;23.278;2023-03-11T05:56:13;93242.50;;;11.83;83.26
6132;BME280;3097;42.692;23.278;2023-03-11T05:58:39;93253.84;;;11.87;83.00
6132;BME280;3097;42.692;23.278;2023-03-11T06:01:13;93259.00;;;11.87;83.43
6132;BME280;3097;42.692;23.278;2023-03-11T06:03:39;93260.53;;;11.88;83.51
6132;BME280;3097;42.692;23.278;2023-03-11T06:06:06;93261.59;;;11.87;83.82
6132;BME280;3097;42.692;23.278;2023-03-11T06:08:33;93262.16;;;11.79;84.30
6132;BME280;3097;42.692;23.278;2023-03-11T06:11:04;93268.84;;;11.80;84.50
6132;BME280;3097;42.692;23.278;2023-03-11T06:13:29;93272.22;;;11.76;84.17
6132;BME280;3097;42.692;23.278;2023-03-11T06:15:55;93256.75;;;11.76;84.44
6132;BME280;3097;42.692;23.278;2023-03-11T06:18:20;93260.88;;;11.72;85.09
6132;BME280;3097;42.692;23.278;2023-03-11T06:20:46;93237.19;;;11.59;85.87
6132;BME280;3097;42.692;23.278;2023-03-11T06:23:11;93228.72;;;11.54;86.32
6132;BME280;3097;42.692;23.278;2023-03-11T06:25:37;93272.19;;;11.86;86.56
6132;BME280;3097;42.692;23.278;2023-03-11T06:28:02;93275.25;;;11.88;86.79
6132;BME280;3097;42.692;23.278;2023-03-11T06:30:28;93269.84;;;11.84;87.34
6132;BME280;3097;42.692;23.278;2023-03-11T06:32:53;93267.53;;;11.83;86.80
6132;BME280;3097;42.692;23.278;2023-03-11T06:35:19;93246.94;;;11.73;87.51
6132;BME280;3097;42.692;23.278;2023-03-11T06:37:45;93282.97;;;11.93;87.95
6132;BME280;3097;42.692;23.278;2023-03-11T06:40:11;93277.25;;;11.96;88.12
6132;BME280;3097;42.692;23.278;2023-03-11T06:42:36;93274.97;;;11.94;88.43
6132;BME280;3097;42.692;23.278;2023-03-11T06:45:02;93262.13;;;11.84;88.56
6132;BME280;3097;42.692;23.278;2023-03-11T06:47:27;93281.38;;;11.97;88.55
6132;BME280;3097;42.692;23.278;2023-03-11T06:49:53;93219.94;;;11.55;88.04
6132;BME280;3097;42.692;23.278;2023-03-11T06:52:18;93268.28;;;11.88;87.47
6132;BME280;3097;42.692;23.278;2023-03-11T06:54:44;93262.63;;;11.81;87.04
6132;BME280;3097;42.692;23.278;2023-03-11T06:57:10;93282.19;;;11.92;87.21
6132;BME280;3097;42.692;23.278;2023-03-11T06:59:36;93269.34;;;11.82;86.83
6132;BME280;3097;42.692;23.278;2023-03-11T07:02:03;93290.69;;;11.98;85.72
6132;BME280;3097;42.692;23.278;2023-03-11T07:04:29;93291.97;;;11.95;86.33
6132;BME280;3097;42.692;23.278;2023-03-11T07:06:55;93212.25;;;11.50;86.41
6132;BME280;3097;42.692;23.278;2023-03-11T07:09:21;93277.56;;;11.89;87.45
6132;BME280;3097;42.692;23.278;2023-03-11T07:11:47;93279.34;;;11.94;87.61
6132;BME280;3097;42.692;23.278;2023-03-11T07:14:13;93269.81;;;11.89;86.79
6132;BME280;3097;42.692;23.278;2023-03-11T07:16:39;93270.03;;;11.98;87.26
6132;BME280;3097;42.692;23.278;2023-03-11T07:19:04;93268.72;;;12.00;86.99
6132;BME280;3097;42.692;23.278;2023-03-11T07:21:31;93277.72;;;12.08;87.13
6132;BME280;3097;42.692;23.278;2023-03-11T07:23:58;93268.88;;;12.14;87.36
6132;BME280;3097;42.692;23.278;2023-03-11T07:26:25;93268.56;;;12.21;86.71
6132;BME280;3097;42.692;23.278;2023-03-11T07:28:52;93275.69;;;12.34;84.38
6132;BME280;3097;42.692;23.278;2023-03-11T07:31:29;93266.09;;;12.39;81.07
6132;BME280;3097;42.692;23.278;2023-03-11T07:33:59;93256.50;;;12.45;81.40
6132;BME280;3097;42.692;23.278;2023-03-11T07:36:26;93259.78;;;12.79;83.36
6132;BME280;3097;42.692;23.278;2023-03-11T07:38:59;93252.59;;;13.67;84.27
6132;BME280;3097;42.692;23.278;2023-03-11T07:41:28;93242.81;;;15.21;81.04
6132;BME280;3097;42.692;23.278;2023-03-11T07:43:57;93235.25;;;16.32;74.24
6132;BME280;3097;42.692;23.278;2023-03-11T07:46:24;93234.81;;;17.31;65.32
6132;BME280;3097;42.692;23.278;2023-03-11T07:48:51;93235.84;;;18.04;61.74
6132;BME280;3097;42.692;23.278;2023-03-11T07:51:19;93235.97;;;19.15;61.69
6132;BME280;3097;42.692;23.278;2023-03-11T07:53:46;93226.56;;;20.68;58.91
6132;BME280;3097;42.692;23.278;2023-03-11T07:56:13;93227.38;;;21.90;55.47
6132;BME280;3097;42.692;23.278;2023-03-11T07:58:39;93211.19;;;22.84;49.79
6132;BME280;3097;42.692;23.278;2023-03-11T08:01:11;93198.78;;;23.47;46.61
6132;BME280;3097;42.692;23.278;2023-03-11T08:03:37;93205.72;;;23.71;46.82
6132;BME280;3097;42.692;23.278;2023-03-11T08:06:17;93183.78;;;23.32;43.35
6132;BME280;3097;42.692;23.278;2023-03-11T08:08:43;93190.59;;;23.01;45.79
6132;BME280;3097;42.692;23.278;2023-03-11T08:11:09;93180.16;;;22.73;43.81
6132;BME280;3097;42.692;23.278;2023-03-11T08:13:35;93150.72;;;22.09;45.30
6132;BME280;3097;42.692;23.278;2023-03-11T08:16:05;93174.22;;;22.05;46.83
6132;BME280;3097;42.692;23.278;2023-03-11T08:18:30;93172.56;;;22.13;47.12
6132;BME280;3097;42.692;23.278;2023-03-11T08:20:57;93131.47;;;21.77;47.13
6132;BME280;3097;42.692;23.278;2023-03-11T08:23:22;93129.59;;;21.77;47.82
6132;BME280;3097;42.692;23.278;2023-03-11T08:25:48;93161.28;;;21.84;45.17
6132;BME280;3097;42.692;23.278;2023-03-11T08:28:13;93156.69;;;21.05;47.56
6132;BME280;3097;42.692;23.278;2023-03-11T08:30:39;93149.59;;;21.17;46.94
6132;BME280;3097;42.692;23.278;2023-03-11T08:33:04;93146.72;;;21.47;47.89
6132;BME280;3097;42.692;23.278;2023-03-11T08:35:30;93143.50;;;21.66;47.20
6132;BME280;3097;42.692;23.278;2023-03-11T08:37:56;93132.38;;;21.96;48.15
6132;BME280;3097;42.692;23.278;2023-03-11T08:40:21;93126.22;;;22.05;46.81
6132;BME280;3097;42.692;23.278;2023-03-11T08:42:47;93127.03;;;21.93;45.25
6132;BME280;3097;42.692;23.278;2023-03-11T08:45:12;93112.34;;;22.04;47.47
6132;BME280;3097;42.692;23.278;2023-03-11T08:47:39;93131.00;;;22.15;44.82
6132;BME280;3097;42.692;23.278;2023-03-11T08:50:10;93129.19;;;22.03;45.20
6132;BME280;3097;42.692;23.278;2023-03-11T08:52:36;93126.91;;;22.02;46.77
6132;BME280;3097;42.692;23.278;2023-03-11T08:55:02;93127.03;;;21.93;44.39
6132;BME280;3097;42.692;23.278;2023-03-11T08:57:30;93131.16;;;21.26;45.82
6132;BME280;3097;42.692;23.278;2023-03-11T08:59:55;93125.03;;;20.73;44.30
6132;BME280;3097;42.692;23.278;2023-03-11T09:02:23;93108.31;;;19.76;48.93
6132;BME280;3097;42.692;23.278;2023-03-11T09:04:49;93142.66;;;19.24;49.52
6132;BME280;3097;42.692;23.278;2023-03-11T09:07:14;93103.91;;;18.97;51.67
6132;BME280;3097;42.692;23.278;2023-03-11T09:09:40;93116.31;;;19.29;53.03
6132;BME280;3097;42.692;23.278;2023-03-11T09:12:06;93125.66;;;19.59;51.09
6132;BME280;3097;42.692;23.278;2023-03-11T09:14:32;93120.00;;;19.57;50.05
6132;BME280;3097;42.692;23.278;2023-03-11T09:16:57;93123.75;;;19.68;51.64
6132;BME280;3097;42.692;23.278;2023-03-11T09:19:23;93098.38;;;19.48;49.28
6132;BME280;3097;42.692;23.278;2023-03-11T09:21:48;93117.16;;;19.42;51.15
6132;BME280;3097;42.692;23.278;2023-03-11T09:24:14;93106.38;;;19.43;50.77
6132;BME280;3097;42.692;23.278;2023-03-11T09:26:39;93102.69;;;19.44;50.32
6132;BME280;3097;42.692;23.278;2023-03-11T09:29:04;93118.75;;;19.55;50.00
6132;BME280;3097;42.692;23.278;2023-03-11T09:31:30;93106.66;;;19.71;49.45
6132;BME280;3097;42.692;23.278;2023-03-11T09:33:55;93050.38;;;19.32;49.98
6132;BME280;3097;42.692;23.278;2023-03-11T09:36:21;93093.50;;;19.80;48.83
6132;BME280;3097;42.692;23.278;2023-03-11T09:38:47;93097.22;;;19.58;50.44
6132;BME280;3097;42.692;23.278;2023-03-11T09:52:36;93097.13;;;19.54;51.57
6132;BME280;3097;42.692;23.278;2023-03-11T09:55:20;93057.19;;;19.04;48.30
6132;BME280;3097;42.692;23.278;2023-03-11T09:57:47;93085.19;;;18.94;48.98
6132;BME280;3097;42.692;23.278;2023-03-11T10:00:14;93093.78;;;18.95;49.71
6132;BME280;3097;42.692;23.278;2023-03-11T10:02:43;93014.97;;;18.43;48.53
6132;BME280;3097;42.692;23.278;2023-03-11T10:05:15;93094.28;;;18.88;49.63
6132;BME280;3097;42.692;23.278;2023-03-11T10:07:50;93088.25;;;18.97;49.60
6132;BME280;3097;42.692;23.278;2023-03-11T10:10:19;93106.31;;;18.81;47.75
6132;BME280;3097;42.692;23.278;2023-03-11T10:12:56;93111.16;;;18.62;47.78
6132;BME280;3097;42.692;23.278;2023-03-11T10:15:49;93094.91;;;18.09;49.30
6132;BME280;3097;42.692;23.278;2023-03-11T10:24:18;93114.28;;;17.74;52.34
6132;BME280;3097;42.692;23.278;2023-03-11T10:26:50;93109.84;;;17.66;53.02
6132;BME280;3097;42.692;23.278;2023-03-11T10:29:44;93092.34;;;17.40;52.43
6132;BME280;3097;42.692;23.278;2023-03-11T10:32:17;93081.78;;;17.20;52.85
6132;BME280;3097;42.692;23.278;2023-03-11T10:34:49;93110.41;;;17.37;52.30
6132;BME280;3097;42.692;23.278;2023-03-11T10:37:31;93112.59;;;17.35;51.89
6132;BME280;3097;42.692;23.278;2023-03-11T10:40:30;93105.03;;;17.16;52.29
6132;BME280;3097;42.692;23.278;2023-03-11T10:42:59;93124.03;;;17.08;51.37
6132;BME280;3097;42.692;23.278;2023-03-11T10:45:27;93062.91;;;16.40;53.68
6132;BME280;3097;42.692;23.278;2023-03-11T10:47:57;93115.97;;;16.31;55.11
6132;BME280;3097;42.692;23.278;2023-03-11T10:50:23;93102.63;;;15.93;55.52
6132;BME280;3097;42.692;23.278;2023-03-11T10:53:14;93130.94;;;16.03;56.75
6132;BME280;3097;42.692;23.278;2023-03-11T10:55:51;93126.78;;;15.93;57.44
6132;BME280;3097;42.692;23.278;2023-03-11T10:58:22;93130.66;;;15.82;57.82
6132;BME280;3097;42.692;23.278;2023-03-11T11:01:02;93131.78;;;15.90;57.04
6132;BME280;3097;42.692;23.278;2023-03-11T11:03:28;93121.75;;;15.74;57.08
6132;BME280;3097;42.692;23.278;2023-03-11T11:06:05;93129.19;;;15.90;57.46
6132;BME280;3097;42.692;23.278;2023-03-11T11:08:32;93126.59;;;15.90;57.04
6132;BME280;3097;42.692;23.278;2023-03-11T11:11:00;93120.78;;;16.15;58.12
6132;BME280;3097;42.692;23.278;2023-03-11T11:13:28;93114.13;;;16.31;57.92
6132;BME280;3097;42.692;23.278;2023-03-11T11:16:18;93109.94;;;16.52;58.48
6132;BME280;3097;42.692;23.278;2023-03-11T11:18:54;93107.41;;;16.70;57.45
6132;BME280;3097;42.692;23.278;2023-03-11T11:21:30;93095.34;;;16.74;56.86
6132;BME280;3097;42.692;23.278;2023-03-11T11:26:38;93076.19;;;16.61;55.93
6132;BME280;3097;42.692;23.278;2023-03-11T11:29:13;93046.66;;;16.26;56.56
6132;BME280;3097;42.692;23.278;2023-03-11T11:31:42;93080.34;;;16.40;56.42
6132;BME280;3097;42.692;23.278;2023-03-11T11:34:27;93083.13;;;16.43;55.71
6132;BME280;3097;42.692;23.278;2023-03-11T11:36:55;93081.63;;;16.51;55.55
6132;BME280;3097;42.692;23.278;2023-03-11T11:39:25;93074.91;;;16.58;55.48
6132;BME280;3097;42.692;23.278;2023-03-11T11:41:51;93049.50;;;16.55;54.66
6132;BME280;3097;42.692;23.278;2023-03-11T11:44:20;93066.69;;;16.65;54.23
6132;BME280;3097;42.692;23.278;2023-03-11T11:46:51;93031.28;;;16.55;55.36
6132;BME280;3097;42.692;23.278;2023-03-11T11:49:30;93043.56;;;16.63;55.33
6132;BME280;3097;42.692;23.278;2023-03-11T11:52:19;93036.53;;;16.64;56.40
6132;BME280;3097;42.692;23.278;2023-03-11T11:55:02;93032.25;;;16.77;55.90
6132;BME280;3097;42.692;23.278;2023-03-11T11:57:30;93040.09;;;17.02;53.01
6132;BME280;3097;42.692;23.278;2023-03-11T11:59:57;93038.44;;;16.98;50.97
6132;BME280;3097;42.692;23.278;2023-03-11T12:05:08;93045.16;;;16.82;50.24
6132;BME280;3097;42.692;23.278;2023-03-11T12:07:48;93031.19;;;16.69;51.17
6132;BME280;3097;42.692;23.278;2023-03-11T12:18:47;93011.78;;;16.75;50.70
6132;BME280;3097;42.692;23.278;2023-03-11T12:24:16;93019.44;;;16.97;51.20
6132;BME280;3097;42.692;23.278;2023-03-11T12:26:45;93002.75;;;16.98;51.12
6132;BME280;3097;42.692;23.278;2023-03-11T12:29:30;93016.53;;;17.08;52.38
6132;BME280;3097;42.692;23.278;2023-03-11T12:31:59;92979.94;;;16.87;52.59
6132;BME280;3097;42.692;23.278;2023-03-11T12:34:27;93007.19;;;17.15;50.84
6132;BME280;3097;42.692;23.278;2023-03-11T12:36:56;93017.75;;;17.10;50.30
6132;BME280;3097;42.692;23.278;2023-03-11T12:39:32;93006.56;;;17.10;51.96
6132;BME280;3097;42.692;23.278;2023-03-11T12:42:37;93016.06;;;16.80;52.51
6132;BME280;3097;42.692;23.278;2023-03-11T12:46:04;93021.09;;;16.68;53.07
6132;BME280;3097;42.692;23.278;2023-03-11T12:50:55;93030.50;;;16.46;54.68
6132;BME280;3097;42.692;23.278;2023-03-11T12:59:07;93053.75;;;16.43;55.65
6132;BME280;3097;42.692;23.278;2023-03-11T13:09:21;93071.25;;;16.20;56.53
6132;BME280;3097;42.692;23.278;2023-03-11T13:11:48;93085.31;;;16.19;56.49
6132;BME280;3097;42.692;23.278;2023-03-11T13:16:40;93059.75;;;15.81;57.58
6132;BME280;3097;42.692;23.278;2023-03-11T13:21:50;93133.84;;;15.79;56.80
6132;BME280;3097;42.692;23.278;2023-03-11T13:29:34;93115.63;;;14.85;63.76
6132;BME280;3097;42.692;23.278;2023-03-11T13:38:32;93204.28;;;13.76;74.76
6132;BME280;3097;42.692;23.278;2023-03-11T13:41:02;93190.81;;;13.23;76.86
6132;BME280;3097;42.692;23.278;2023-03-11T13:43:28;93188.59;;;12.87;77.41
6132;BME280;3097;42.692;23.278;2023-03-11T13:46:01;93195.19;;;12.74;79.65
6132;BME280;3097;42.692;23.278;2023-03-11T13:48:31;93214.00;;;12.56;82.29
6132;BME280;3097;42.692;23.278;2023-03-11T13:50:59;93195.88;;;12.61;82.76
6132;BME280;3097;42.692;23.278;2023-03-11T13:55:58;93193.00;;;12.39;83.92
6132;BME280;3097;42.692;23.278;2023-03-11T13:58:25;93177.47;;;12.39;85.22
6132;BME280;3097;42.692;23.278;2023-03-11T14:00:59;93139.41;;;12.21;85.48
6132;BME280;3097;42.692;23.278;2023-03-11T14:03:28;93136.47;;;12.32;84.69
6132;BME280;3097;42.692;23.278;2023-03-11T14:06:06;93175.84;;;12.72;84.63
6132;BME280;3097;42.692;23.278;2023-03-11T14:08:37;93176.50;;;12.83;84.33
6132;BME280;3097;42.692;23.278;2023-03-11T14:13:39;93179.78;;;12.88;83.52
6132;BME280;3097;42.692;23.278;2023-03-11T14:16:17;93171.75;;;12.90;83.59
6132;BME280;3097;42.692;23.278;2023-03-11T14:18:45;93179.06;;;13.06;83.74
6132;BME280;3097;42.692;23.278;2023-03-11T14:21:18;93188.56;;;13.11;84.60
6132;BME280;3097;42.692;23.278;2023-03-11T14:23:51;93171.75;;;13.13;82.99
6132;BME280;3097;42.692;23.278;2023-03-11T14:26:20;93197.16;;;13.30;82.26
6132;BME280;3097;42.692;23.278;2023-03-11T14:28:48;93177.72;;;13.09;81.29
6132;BME280;3097;42.692;23.278;2023-03-11T14:33:57;93181.84;;;13.34;80.01
6132;BME280;3097;42.692;23.278;2023-03-11T14:36:29;93197.03;;;13.40;79.69
6132;BME280;3097;42.692;23.278;2023-03-11T14:38:55;93204.28;;;13.38;80.23